sensor_id;sensor_type;location;lat;lon;timestamp;P1;durP1;ratioP1;P2;durP2;ratioP2
77117;SDS011;66072;50.238;19.228;2023-04-24T00:02:18;19.80;;;13.30;;
77117;SDS011;66072;50.238;19.228;2023-04-24T00:04:46;18.60;;;13.00;;
77117;SDS011;66072;50.238;19.228;2023-04-24T00:07:13;19.40;;;14.00;;
77117;SDS011;66072;50.238;19.228;2023-04-24T00:09:41;22.60;;;13.90;;
77117;SDS011;66072;50.238;19.228;2023-04-24T00:12:09;21.30;;;14.60;;
77117;SDS011;66072;50.238;19.228;2023-04-24T00:14:37;22.50;;;14.80;;
77117;SDS011;66072;50.238;19.228;2023-04-24T00:17:05;24.20;;;14.80;;
77117;SDS011;66072;50.238;19.228;2023-04-24T00:19:32;23.20;;;15.50;;
77117;SDS011;66072;50.238;19.228;2023-04-24T00:22:00;24.70;;;16.00;;
77117;SDS011;66072;50.238;19.228;2023-04-24T00:24:28;24.10;;;15.20;;
77117;SDS011;66072;50.238;19.228;2023-04-24T00:26:55;17.90;;;13.30;;
77117;SDS011;66072;50.238;19.228;2023-04-24T00:29:23;19.20;;;13.30;;
77117;SDS011;66072;50.238;19.228;2023-04-24T00:31:50;18.90;;;13.10;;
77117;SDS011;66072;50.238;19.228;2023-04-24T00:34:18;22.10;;;14.60;;
77117;SDS011;66072;50.238;19.228;2023-04-24T00:36:46;19.20;;;13.50;;
77117;SDS011;66072;50.238;19.228;2023-04-24T00:39:14;18.60;;;12.80;;
77117;SDS011;66072;50.238;19.228;2023-04-24T00:41:41;17.80;;;12.70;;
77117;SDS011;66072;50.238;19.228;2023-04-24T00:44:09;17.50;;;11.10;;
77117;SDS011;66072;50.238;19.228;2023-04-24T00:46:37;12.10;;;8.60;;
77117;SDS011;66072;50.238;19.228;2023-04-24T00:49:05;11.60;;;8.30;;
77117;SDS011;66072;50.238;19.228;2023-04-24T00:51:33;13.10;;;8.90;;
77117;SDS011;66072;50.238;19.228;2023-04-24T00:54:01;12.10;;;8.20;;
77117;SDS011;66072;50.238;19.228;2023-04-24T00:56:28;14.20;;;9.60;;
77117;SDS011;66072;50.238;19.228;2023-04-24T00:58:56;14.80;;;10.80;;
77117;SDS011;66072;50.238;19.228;2023-04-24T01:01:25;16.10;;;10.90;;
77117;SDS011;66072;50.238;19.228;2023-04-24T01:03:52;16.90;;;10.70;;
77117;SDS011;66072;50.238;19.228;2023-04-24T01:06:21;16.40;;;10.20;;
77117;SDS011;66072;50.238;19.228;2023-04-24T01:08:49;14.30;;;10.60;;
77117;SDS011;66072;50.238;19.228;2023-04-24T01:11:17;12.30;;;9.50;;
77117;SDS011;66072;50.238;19.228;2023-04-24T01:13:45;15.80;;;10.70;;
77117;SDS011;66072;50.238;19.228;2023-04-24T01:16:14;19.20;;;12.10;;
77117;SDS011;66072;50.238;19.228;2023-04-24T01:18:42;20.10;;;14.00;;
77117;SDS011;66072;50.238;19.228;2023-04-24T01:21:11;22.10;;;15.60;;
77117;SDS011;66072;50.238;19.228;2023-04-24T01:23:43;22.10;;;15.50;;
77117;SDS011;66072;50.238;19.228;2023-04-24T01:26:12;22.20;;;15.30;;
77117;SDS011;66072;50.238;19.228;2023-04-24T01:31:09;19.70;;;13.80;;
77117;SDS011;66072;50.238;19.228;2023-04-24T01:33:36;24.30;;;15.30;;
77117;SDS011;66072;50.238;19.228;2023-04-24T01:36:04;20.20;;;14.30;;
77117;SDS011;66072;50.238;19.228;2023-04-24T01:38:32;22.00;;;15.20;;
77117;SDS011;66072;50.238;19.228;2023-04-24T01:40:59;24.60;;;15.90;;
77117;SDS011;66072;50.238;19.228;2023-04-24T01:43:28;22.50;;;15.50;;
77117;SDS011;66072;50.238;19.228;2023-04-24T01:45:56;24.40;;;15.40;;
77117;SDS011;66072;50.238;19.228;2023-04-24T01:48:24;22.40;;;14.70;;
77117;SDS011;66072;50.238;19.228;2023-04-24T01:50:51;21.70;;;14.30;;
77117;SDS011;66072;50.238;19.228;2023-04-24T01:53:19;21.40;;;14.50;;
77117;SDS011;66072;50.238;19.228;2023-04-24T01:55:47;24.10;;;14.70;;
77117;SDS011;66072;50.238;19.228;2023-04-24T01:58:14;20.80;;;14.40;;
77117;SDS011;66072;50.238;19.228;2023-04-24T02:00:42;21.90;;;13.70;;
77117;SDS011;66072;50.238;19.228;2023-04-24T02:03:10;18.20;;;12.70;;
77117;SDS011;66072;50.238;19.228;2023-04-24T02:05:38;18.90;;;13.20;;
77117;SDS011;66072;50.238;19.228;2023-04-24T02:08:06;21.70;;;13.50;;
77117;SDS011;66072;50.238;19.228;2023-04-24T02:10:33;15.60;;;12.20;;
77117;SDS011;66072;50.238;19.228;2023-04-24T02:13:01;20.40;;;13.10;;
77117;SDS011;66072;50.238;19.228;2023-04-24T02:15:28;19.70;;;13.40;;
77117;SDS011;66072;50.238;19.228;2023-04-24T02:17:56;18.40;;;12.70;;
77117;SDS011;66072;50.238;19.228;2023-04-24T02:20:23;23.80;;;14.10;;
77117;SDS011;66072;50.238;19.228;2023-04-24T02:22:51;25.80;;;15.50;;
77117;SDS011;66072;50.238;19.228;2023-04-24T02:25:19;24.00;;;15.80;;
77117;SDS011;66072;50.238;19.228;2023-04-24T02:27:46;22.50;;;14.80;;
77117;SDS011;66072;50.238;19.228;2023-04-24T02:30:14;24.30;;;15.70;;
77117;SDS011;66072;50.238;19.228;2023-04-24T02:32:42;23.40;;;16.30;;
77117;SDS011;66072;50.238;19.228;2023-04-24T02:35:09;23.60;;;15.70;;
77117;SDS011;66072;50.238;19.228;2023-04-24T02:37:37;24.80;;;16.10;;
77117;SDS011;66072;50.238;19.228;2023-04-24T02:40:05;25.40;;;15.80;;
77117;SDS011;66072;50.238;19.228;2023-04-24T02:42:33;21.50;;;13.70;;
77117;SDS011;66072;50.238;19.228;2023-04-24T02:45:01;14.80;;;11.10;;
77117;SDS011;66072;50.238;19.228;2023-04-24T02:47:28;14.20;;;9.60;;
77117;SDS011;66072;50.238;19.228;2023-04-24T02:49:56;12.20;;;8.50;;
77117;SDS011;66072;50.238;19.228;2023-04-24T02:52:23;14.50;;;9.70;;
77117;SDS011;66072;50.238;19.228;2023-04-24T02:54:51;21.40;;;13.10;;
77117;SDS011;66072;50.238;19.228;2023-04-24T02:57:19;19.00;;;12.50;;
77117;SDS011;66072;50.238;19.228;2023-04-24T02:59:46;18.60;;;13.00;;
77117;SDS011;66072;50.238;19.228;2023-04-24T03:02:14;17.80;;;12.00;;
77117;SDS011;66072;50.238;19.228;2023-04-24T03:04:42;20.00;;;11.70;;
77117;SDS011;66072;50.238;19.228;2023-04-24T03:07:10;16.90;;;11.60;;
77117;SDS011;66072;50.238;19.228;2023-04-24T03:09:37;20.00;;;12.00;;
77117;SDS011;66072;50.238;19.228;2023-04-24T03:12:05;18.10;;;12.80;;
77117;SDS011;66072;50.238;19.228;2023-04-24T03:14:32;22.80;;;14.00;;
77117;SDS011;66072;50.238;19.228;2023-04-24T03:17:00;21.40;;;13.00;;
77117;SDS011;66072;50.238;19.228;2023-04-24T03:19:28;18.50;;;12.70;;
77117;SDS011;66072;50.238;19.228;2023-04-24T03:21:55;19.60;;;14.40;;
77117;SDS011;66072;50.238;19.228;2023-04-24T03:24:23;18.60;;;12.90;;
77117;SDS011;66072;50.238;19.228;2023-04-24T03:26:50;18.00;;;12.50;;
77117;SDS011;66072;50.238;19.228;2023-04-24T03:29:18;17.40;;;11.70;;
77117;SDS011;66072;50.238;19.228;2023-04-24T03:31:46;18.70;;;12.80;;
77117;SDS011;66072;50.238;19.228;2023-04-24T03:34:13;16.90;;;12.50;;
77117;SDS011;66072;50.238;19.228;2023-04-24T03:36:41;15.60;;;12.30;;
77117;SDS011;66072;50.238;19.228;2023-04-24T03:39:09;18.20;;;12.80;;
77117;SDS011;66072;50.238;19.228;2023-04-24T03:41:36;16.10;;;10.90;;
77117;SDS011;66072;50.238;19.228;2023-04-24T03:44:04;16.20;;;11.70;;
77117;SDS011;66072;50.238;19.228;2023-04-24T03:46:31;16.60;;;11.90;;
77117;SDS011;66072;50.238;19.228;2023-04-24T03:48:59;20.30;;;12.70;;
77117;SDS011;66072;50.238;19.228;2023-04-24T03:51:26;16.10;;;12.40;;
77117;SDS011;66072;50.238;19.228;2023-04-24T03:53:54;19.80;;;12.50;;
77117;SDS011;66072;50.238;19.228;2023-04-24T03:56:22;17.70;;;13.90;;
77117;SDS011;66072;50.238;19.228;2023-04-24T03:58:49;18.90;;;13.60;;
77117;SDS011;66072;50.238;19.228;2023-04-24T04:01:17;19.40;;;13.60;;
77117;SDS011;66072;50.238;19.228;2023-04-24T04:03:44;19.00;;;13.70;;
77117;SDS011;66072;50.238;19.228;2023-04-24T04:06:12;18.20;;;13.90;;
77117;SDS011;66072;50.238;19.228;2023-04-24T04:08:40;20.40;;;13.90;;
77117;SDS011;66072;50.238;19.228;2023-04-24T04:11:07;20.30;;;14.80;;
77117;SDS011;66072;50.238;19.228;2023-04-24T04:13:35;22.20;;;15.40;;
77117;SDS011;66072;50.238;19.228;2023-04-24T04:16:03;21.70;;;15.30;;
77117;SDS011;66072;50.238;19.228;2023-04-24T04:18:30;24.20;;;15.50;;
77117;SDS011;66072;50.238;19.228;2023-04-24T04:20:58;18.80;;;13.80;;
77117;SDS011;66072;50.238;19.228;2023-04-24T04:23:26;20.80;;;13.30;;
77117;SDS011;66072;50.238;19.228;2023-04-24T04:25:53;24.20;;;15.30;;
77117;SDS011;66072;50.238;19.228;2023-04-24T04:28:21;22.50;;;15.50;;
77117;SDS011;66072;50.238;19.228;2023-04-24T04:30:48;21.00;;;15.40;;
77117;SDS011;66072;50.238;19.228;2023-04-24T04:33:16;24.60;;;15.00;;
77117;SDS011;66072;50.238;19.228;2023-04-24T04:35:44;21.70;;;14.00;;
77117;SDS011;66072;50.238;19.228;2023-04-24T04:38:11;17.80;;;12.50;;
77117;SDS011;66072;50.238;19.228;2023-04-24T04:40:39;18.50;;;12.50;;
77117;SDS011;66072;50.238;19.228;2023-04-24T04:43:07;21.00;;;12.10;;
77117;SDS011;66072;50.238;19.228;2023-04-24T04:45:34;20.30;;;13.20;;
77117;SDS011;66072;50.238;19.228;2023-04-24T04:48:02;20.80;;;12.60;;
77117;SDS011;66072;50.238;19.228;2023-04-24T04:50:30;17.70;;;12.00;;
77117;SDS011;66072;50.238;19.228;2023-04-24T04:52:57;16.00;;;11.80;;
77117;SDS011;66072;50.238;19.228;2023-04-24T04:55:25;21.70;;;14.60;;
77117;SDS011;66072;50.238;19.228;2023-04-24T04:57:52;24.80;;;15.00;;
77117;SDS011;66072;50.238;19.228;2023-04-24T05:00:20;18.50;;;11.90;;
77117;SDS011;66072;50.238;19.228;2023-04-24T05:02:48;17.40;;;12.60;;
77117;SDS011;66072;50.238;19.228;2023-04-24T05:05:15;16.30;;;11.70;;
77117;SDS011;66072;50.238;19.228;2023-04-24T05:07:43;17.10;;;12.40;;
77117;SDS011;66072;50.238;19.228;2023-04-24T05:10:11;17.70;;;12.40;;
77117;SDS011;66072;50.238;19.228;2023-04-24T05:12:39;16.80;;;11.50;;
77117;SDS011;66072;50.238;19.228;2023-04-24T05:15:06;16.80;;;11.10;;
77117;SDS011;66072;50.238;19.228;2023-04-24T05:17:35;15.60;;;11.60;;
77117;SDS011;66072;50.238;19.228;2023-04-24T05:20:03;14.80;;;11.70;;
77117;SDS011;66072;50.238;19.228;2023-04-24T05:22:31;14.60;;;10.30;;
77117;SDS011;66072;50.238;19.228;2023-04-24T05:24:59;14.40;;;10.40;;
77117;SDS011;66072;50.238;19.228;2023-04-24T05:27:27;14.50;;;10.70;;
77117;SDS011;66072;50.238;19.228;2023-04-24T05:29:54;14.70;;;11.00;;
77117;SDS011;66072;50.238;19.228;2023-04-24T05:32:22;14.40;;;11.20;;
77117;SDS011;66072;50.238;19.228;2023-04-24T05:34:49;14.80;;;11.30;;
77117;SDS011;66072;50.238;19.228;2023-04-24T05:37:17;16.30;;;11.00;;
77117;SDS011;66072;50.238;19.228;2023-04-24T05:39:45;14.80;;;11.10;;
77117;SDS011;66072;50.238;19.228;2023-04-24T05:42:12;11.60;;;8.50;;
77117;SDS011;66072;50.238;19.228;2023-04-24T05:44:40;14.20;;;9.90;;
77117;SDS011;66072;50.238;19.228;2023-04-24T05:47:07;15.60;;;9.50;;
77117;SDS011;66072;50.238;19.228;2023-04-24T05:49:36;12.90;;;9.50;;
77117;SDS011;66072;50.238;19.228;2023-04-24T05:52:03;11.90;;;9.10;;
77117;SDS011;66072;50.238;19.228;2023-04-24T05:54:31;14.50;;;8.40;;
77117;SDS011;66072;50.238;19.228;2023-04-24T05:56:58;10.80;;;7.40;;
77117;SDS011;66072;50.238;19.228;2023-04-24T05:59:26;9.20;;;7.00;;
77117;SDS011;66072;50.238;19.228;2023-04-24T06:01:53;9.40;;;6.40;;
77117;SDS011;66072;50.238;19.228;2023-04-24T06:04:21;9.70;;;6.70;;
77117;SDS011;66072;50.238;19.228;2023-04-24T06:06:49;9.00;;;6.20;;
77117;SDS011;66072;50.238;19.228;2023-04-24T06:09:17;7.80;;;5.20;;
77117;SDS011;66072;50.238;19.228;2023-04-24T06:11:44;6.80;;;5.40;;
77117;SDS011;66072;50.238;19.228;2023-04-24T06:14:12;8.30;;;5.60;;
77117;SDS011;66072;50.238;19.228;2023-04-24T06:16:41;6.40;;;5.30;;
77117;SDS011;66072;50.238;19.228;2023-04-24T06:19:10;7.10;;;5.50;;
77117;SDS011;66072;50.238;19.228;2023-04-24T06:21:37;7.30;;;5.90;;
77117;SDS011;66072;50.238;19.228;2023-04-24T06:24:05;7.50;;;4.90;;
77117;SDS011;66072;50.238;19.228;2023-04-24T06:26:32;8.40;;;5.40;;
77117;SDS011;66072;50.238;19.228;2023-04-24T06:29:00;7.80;;;5.20;;
77117;SDS011;66072;50.238;19.228;2023-04-24T06:31:28;6.30;;;4.70;;
77117;SDS011;66072;50.238;19.228;2023-04-24T06:33:55;8.50;;;6.30;;
77117;SDS011;66072;50.238;19.228;2023-04-24T06:36:23;8.30;;;5.80;;
77117;SDS011;66072;50.238;19.228;2023-04-24T06:38:51;8.50;;;5.30;;
77117;SDS011;66072;50.238;19.228;2023-04-24T06:41:18;7.20;;;5.40;;
77117;SDS011;66072;50.238;19.228;2023-04-24T06:43:46;7.50;;;4.80;;
77117;SDS011;66072;50.238;19.228;2023-04-24T06:46:14;9.30;;;5.30;;
77117;SDS011;66072;50.238;19.228;2023-04-24T06:48:41;9.90;;;5.30;;
77117;SDS011;66072;50.238;19.228;2023-04-24T06:51:09;6.20;;;4.60;;
77117;SDS011;66072;50.238;19.228;2023-04-24T06:53:36;6.50;;;4.70;;
77117;SDS011;66072;50.238;19.228;2023-04-24T06:56:04;6.30;;;4.80;;
77117;SDS011;66072;50.238;19.228;2023-04-24T06:58:32;6.90;;;4.80;;
77117;SDS011;66072;50.238;19.228;2023-04-24T07:01:00;7.60;;;5.30;;
77117;SDS011;66072;50.238;19.228;2023-04-24T07:03:27;5.10;;;4.60;;
77117;SDS011;66072;50.238;19.228;2023-04-24T07:05:55;6.70;;;4.90;;
77117;SDS011;66072;50.238;19.228;2023-04-24T07:08:23;6.10;;;4.30;;
77117;SDS011;66072;50.238;19.228;2023-04-24T07:10:50;5.20;;;4.40;;
77117;SDS011;66072;50.238;19.228;2023-04-24T07:13:18;8.50;;;4.90;;
77117;SDS011;66072;50.238;19.228;2023-04-24T07:15:45;6.20;;;5.00;;
77117;SDS011;66072;50.238;19.228;2023-04-24T07:18:13;5.10;;;4.30;;
77117;SDS011;66072;50.238;19.228;2023-04-24T07:20:41;6.60;;;4.40;;
77117;SDS011;66072;50.238;19.228;2023-04-24T07:23:08;7.00;;;4.60;;
77117;SDS011;66072;50.238;19.228;2023-04-24T07:25:36;5.20;;;3.90;;
77117;SDS011;66072;50.238;19.228;2023-04-24T07:28:03;6.70;;;4.80;;
77117;SDS011;66072;50.238;19.228;2023-04-24T07:30:31;6.20;;;3.70;;
77117;SDS011;66072;50.238;19.228;2023-04-24T07:32:59;6.50;;;4.80;;
77117;SDS011;66072;50.238;19.228;2023-04-24T07:35:26;6.10;;;4.50;;
77117;SDS011;66072;50.238;19.228;2023-04-24T07:37:54;6.70;;;4.30;;
77117;SDS011;66072;50.238;19.228;2023-04-24T07:40:22;6.60;;;4.80;;
77117;SDS011;66072;50.238;19.228;2023-04-24T07:42:49;6.20;;;5.20;;
77117;SDS011;66072;50.238;19.228;2023-04-24T07:45:17;8.90;;;5.30;;
77117;SDS011;66072;50.238;19.228;2023-04-24T07:47:45;6.70;;;4.80;;
77117;SDS011;66072;50.238;19.228;2023-04-24T07:50:12;6.60;;;4.70;;
77117;SDS011;66072;50.238;19.228;2023-04-24T07:52:41;6.40;;;5.20;;
77117;SDS011;66072;50.238;19.228;2023-04-24T07:55:08;6.00;;;3.90;;
77117;SDS011;66072;50.238;19.228;2023-04-24T07:57:36;7.40;;;4.70;;
77117;SDS011;66072;50.238;19.228;2023-04-24T08:00:04;5.90;;;4.50;;
77117;SDS011;66072;50.238;19.228;2023-04-24T08:02:32;6.70;;;4.70;;
77117;SDS011;66072;50.238;19.228;2023-04-24T08:05:00;8.00;;;4.60;;
77117;SDS011;66072;50.238;19.228;2023-04-24T08:07:28;4.30;;;3.00;;
77117;SDS011;66072;50.238;19.228;2023-04-24T08:09:55;4.90;;;3.70;;
77117;SDS011;66072;50.238;19.228;2023-04-24T08:12:23;5.40;;;4.00;;
77117;SDS011;66072;50.238;19.228;2023-04-24T08:14:51;7.20;;;4.60;;
77117;SDS011;66072;50.238;19.228;2023-04-24T08:17:18;6.80;;;4.80;;
77117;SDS011;66072;50.238;19.228;2023-04-24T08:19:46;6.10;;;4.70;;
77117;SDS011;66072;50.238;19.228;2023-04-24T08:22:14;5.60;;;4.40;;
77117;SDS011;66072;50.238;19.228;2023-04-24T08:24:42;6.80;;;4.60;;
77117;SDS011;66072;50.238;19.228;2023-04-24T08:27:10;6.00;;;4.60;;
77117;SDS011;66072;50.238;19.228;2023-04-24T08:29:38;4.60;;;3.60;;
77117;SDS011;66072;50.238;19.228;2023-04-24T08:32:05;7.80;;;4.70;;
77117;SDS011;66072;50.238;19.228;2023-04-24T08:34:33;6.00;;;4.60;;
77117;SDS011;66072;50.238;19.228;2023-04-24T08:37:00;5.90;;;4.30;;
77117;SDS011;66072;50.238;19.228;2023-04-24T08:39:28;5.30;;;4.80;;
77117;SDS011;66072;50.238;19.228;2023-04-24T08:41:56;5.40;;;4.10;;
77117;SDS011;66072;50.238;19.228;2023-04-24T08:44:24;4.60;;;4.10;;
77117;SDS011;66072;50.238;19.228;2023-04-24T08:46:51;5.70;;;4.00;;
77117;SDS011;66072;50.238;19.228;2023-04-24T08:51:52;5.00;;;4.10;;
77117;SDS011;66072;50.238;19.228;2023-04-24T08:54:20;7.10;;;4.10;;
77117;SDS011;66072;50.238;19.228;2023-04-24T08:56:48;6.50;;;4.90;;
77117;SDS011;66072;50.238;19.228;2023-04-24T08:59:16;5.90;;;4.70;;
77117;SDS011;66072;50.238;19.228;2023-04-24T09:01:44;7.80;;;4.30;;
77117;SDS011;66072;50.238;19.228;2023-04-24T09:04:15;5.10;;;4.10;;
77117;SDS011;66072;50.238;19.228;2023-04-24T09:06:44;5.20;;;4.00;;
77117;SDS011;66072;50.238;19.228;2023-04-24T09:09:12;7.10;;;4.10;;
77117;SDS011;66072;50.238;19.228;2023-04-24T09:11:39;7.50;;;4.40;;
77117;SDS011;66072;50.238;19.228;2023-04-24T09:14:08;10.70;;;4.90;;
77117;SDS011;66072;50.238;19.228;2023-04-24T09:16:37;5.60;;;4.20;;
77117;SDS011;66072;50.238;19.228;2023-04-24T09:19:04;5.80;;;4.40;;
77117;SDS011;66072;50.238;19.228;2023-04-24T09:21:32;7.10;;;3.80;;
77117;SDS011;66072;50.238;19.228;2023-04-24T09:24:02;5.20;;;4.00;;
77117;SDS011;66072;50.238;19.228;2023-04-24T09:26:31;6.30;;;3.30;;
77117;SDS011;66072;50.238;19.228;2023-04-24T09:29:02;4.90;;;3.80;;
77117;SDS011;66072;50.238;19.228;2023-04-24T09:31:31;4.60;;;2.90;;
77117;SDS011;66072;50.238;19.228;2023-04-24T09:34:00;5.40;;;3.00;;
77117;SDS011;66072;50.238;19.228;2023-04-24T09:36:42;5.10;;;4.40;;
77117;SDS011;66072;50.238;19.228;2023-04-24T09:39:11;5.00;;;3.50;;
77117;SDS011;66072;50.238;19.228;2023-04-24T09:41:43;4.80;;;4.30;;
77117;SDS011;66072;50.238;19.228;2023-04-24T09:44:21;5.40;;;4.40;;
77117;SDS011;66072;50.238;19.228;2023-04-24T09:46:52;7.40;;;5.50;;
77117;SDS011;66072;50.238;19.228;2023-04-24T09:49:30;6.40;;;4.60;;
77117;SDS011;66072;50.238;19.228;2023-04-24T09:52:05;9.50;;;6.50;;
77117;SDS011;66072;50.238;19.228;2023-04-24T09:54:34;6.40;;;4.20;;
77117;SDS011;66072;50.238;19.228;2023-04-24T09:57:02;6.20;;;3.50;;
77117;SDS011;66072;50.238;19.228;2023-04-24T09:59:30;6.70;;;4.10;;
77117;SDS011;66072;50.238;19.228;2023-04-24T10:01:58;3.90;;;3.10;;
77117;SDS011;66072;50.238;19.228;2023-04-24T10:04:27;6.60;;;3.80;;
77117;SDS011;66072;50.238;19.228;2023-04-24T10:06:56;6.80;;;4.00;;
77117;SDS011;66072;50.238;19.228;2023-04-24T10:09:25;6.70;;;4.60;;
77117;SDS011;66072;50.238;19.228;2023-04-24T10:14:22;7.20;;;4.40;;
77117;SDS011;66072;50.238;19.228;2023-04-24T10:16:52;5.50;;;4.30;;
77117;SDS011;66072;50.238;19.228;2023-04-24T10:19:21;4.80;;;3.80;;
77117;SDS011;66072;50.238;19.228;2023-04-24T10:21:50;3.90;;;3.50;;
77117;SDS011;66072;50.238;19.228;2023-04-24T10:24:18;6.10;;;4.60;;
77117;SDS011;66072;50.238;19.228;2023-04-24T10:26:46;4.80;;;3.30;;
77117;SDS011;66072;50.238;19.228;2023-04-24T10:29:14;4.40;;;3.10;;
77117;SDS011;66072;50.238;19.228;2023-04-24T10:31:44;6.60;;;3.90;;
77117;SDS011;66072;50.238;19.228;2023-04-24T10:34:12;5.50;;;3.50;;
77117;SDS011;66072;50.238;19.228;2023-04-24T10:36:43;5.50;;;3.10;;
77117;SDS011;66072;50.238;19.228;2023-04-24T10:39:15;4.70;;;3.80;;
77117;SDS011;66072;50.238;19.228;2023-04-24T10:41:44;5.40;;;4.00;;
77117;SDS011;66072;50.238;19.228;2023-04-24T10:44:12;5.10;;;4.00;;
77117;SDS011;66072;50.238;19.228;2023-04-24T10:46:42;5.80;;;3.50;;
77117;SDS011;66072;50.238;19.228;2023-04-24T10:49:11;5.10;;;4.00;;
77117;SDS011;66072;50.238;19.228;2023-04-24T10:51:44;6.60;;;4.40;;
77117;SDS011;66072;50.238;19.228;2023-04-24T10:54:26;25.30;;;10.30;;
77117;SDS011;66072;50.238;19.228;2023-04-24T10:59:47;6.60;;;4.30;;
77117;SDS011;66072;50.238;19.228;2023-04-24T11:02:16;7.20;;;4.60;;
77117;SDS011;66072;50.238;19.228;2023-04-24T11:04:44;5.00;;;3.70;;
77117;SDS011;66072;50.238;19.228;2023-04-24T11:07:12;6.20;;;4.20;;
77117;SDS011;66072;50.238;19.228;2023-04-24T11:09:40;5.10;;;4.10;;
77117;SDS011;66072;50.238;19.228;2023-04-24T11:12:09;6.70;;;4.10;;
77117;SDS011;66072;50.238;19.228;2023-04-24T11:17:37;5.60;;;4.30;;
77117;SDS011;66072;50.238;19.228;2023-04-24T11:20:16;6.80;;;4.50;;
77117;SDS011;66072;50.238;19.228;2023-04-24T11:22:54;5.00;;;3.50;;
77117;SDS011;66072;50.238;19.228;2023-04-24T11:25:23;5.30;;;3.80;;
77117;SDS011;66072;50.238;19.228;2023-04-24T11:27:51;9.30;;;5.40;;
77117;SDS011;66072;50.238;19.228;2023-04-24T11:30:31;6.50;;;4.40;;
77117;SDS011;66072;50.238;19.228;2023-04-24T11:33:03;6.20;;;4.20;;
77117;SDS011;66072;50.238;19.228;2023-04-24T11:35:35;6.90;;;4.70;;
77117;SDS011;66072;50.238;19.228;2023-04-24T11:38:06;7.80;;;5.30;;
77117;SDS011;66072;50.238;19.228;2023-04-24T11:40:51;7.80;;;5.10;;
77117;SDS011;66072;50.238;19.228;2023-04-24T11:43:19;5.70;;;3.90;;
77117;SDS011;66072;50.238;19.228;2023-04-24T11:45:48;7.10;;;4.00;;
77117;SDS011;66072;50.238;19.228;2023-04-24T11:48:19;6.50;;;4.50;;
77117;SDS011;66072;50.238;19.228;2023-04-24T11:50:49;5.30;;;4.10;;
77117;SDS011;66072;50.238;19.228;2023-04-24T11:53:20;5.40;;;4.00;;
77117;SDS011;66072;50.238;19.228;2023-04-24T11:55:48;10.20;;;5.70;;
77117;SDS011;66072;50.238;19.228;2023-04-24T11:58:15;6.30;;;4.70;;
77117;SDS011;66072;50.238;19.228;2023-04-24T12:00:53;7.40;;;4.70;;
77117;SDS011;66072;50.238;19.228;2023-04-24T12:03:23;6.10;;;4.20;;
77117;SDS011;66072;50.238;19.228;2023-04-24T12:05:51;7.50;;;5.20;;
77117;SDS011;66072;50.238;19.228;2023-04-24T12:08:28;7.30;;;5.10;;
77117;SDS011;66072;50.238;19.228;2023-04-24T12:10:56;6.40;;;4.70;;
77117;SDS011;66072;50.238;19.228;2023-04-24T12:13:25;4.90;;;4.00;;
77117;SDS011;66072;50.238;19.228;2023-04-24T12:15:53;6.30;;;4.50;;
77117;SDS011;66072;50.238;19.228;2023-04-24T12:18:23;6.90;;;4.80;;
77117;SDS011;66072;50.238;19.228;2023-04-24T12:20:51;6.50;;;4.60;;
77117;SDS011;66072;50.238;19.228;2023-04-24T12:23:34;5.80;;;4.10;;
77117;SDS011;66072;50.238;19.228;2023-04-24T12:26:05;7.20;;;4.30;;
77117;SDS011;66072;50.238;19.228;2023-04-24T12:28:36;5.40;;;3.60;;
77117;SDS011;66072;50.238;19.228;2023-04-24T12:31:06;5.90;;;3.90;;
77117;SDS011;66072;50.238;19.228;2023-04-24T12:33:35;6.00;;;4.40;;
77117;SDS011;66072;50.238;19.228;2023-04-24T12:36:02;5.60;;;3.50;;
77117;SDS011;66072;50.238;19.228;2023-04-24T12:38:30;5.20;;;4.10;;
77117;SDS011;66072;50.238;19.228;2023-04-24T12:41:04;6.40;;;3.80;;
77117;SDS011;66072;50.238;19.228;2023-04-24T12:43:32;6.70;;;3.90;;
77117;SDS011;66072;50.238;19.228;2023-04-24T12:46:00;5.40;;;3.80;;
77117;SDS011;66072;50.238;19.228;2023-04-24T12:48:28;4.60;;;3.90;;
77117;SDS011;66072;50.238;19.228;2023-04-24T12:50:57;7.40;;;4.60;;
77117;SDS011;66072;50.238;19.228;2023-04-24T12:53:25;7.00;;;3.90;;
77117;SDS011;66072;50.238;19.228;2023-04-24T12:55:53;7.00;;;4.10;;
77117;SDS011;66072;50.238;19.228;2023-04-24T12:58:20;5.60;;;3.80;;
77117;SDS011;66072;50.238;19.228;2023-04-24T13:00:48;5.70;;;3.90;;
77117;SDS011;66072;50.238;19.228;2023-04-24T13:03:16;5.10;;;3.60;;
77117;SDS011;66072;50.238;19.228;2023-04-24T13:05:44;6.20;;;3.70;;
77117;SDS011;66072;50.238;19.228;2023-04-24T13:08:11;4.40;;;3.50;;
77117;SDS011;66072;50.238;19.228;2023-04-24T13:10:39;6.50;;;4.30;;
77117;SDS011;66072;50.238;19.228;2023-04-24T13:13:07;5.30;;;3.90;;
77117;SDS011;66072;50.238;19.228;2023-04-24T13:15:35;6.20;;;4.20;;
77117;SDS011;66072;50.238;19.228;2023-04-24T13:18:03;5.20;;;4.20;;
77117;SDS011;66072;50.238;19.228;2023-04-24T13:20:31;5.20;;;4.10;;
77117;SDS011;66072;50.238;19.228;2023-04-24T13:22:59;5.70;;;4.50;;
77117;SDS011;66072;50.238;19.228;2023-04-24T13:25:26;6.60;;;3.60;;
77117;SDS011;66072;50.238;19.228;2023-04-24T13:27:54;4.60;;;3.70;;
77117;SDS011;66072;50.238;19.228;2023-04-24T13:30:21;5.40;;;3.60;;
77117;SDS011;66072;50.238;19.228;2023-04-24T13:32:49;4.90;;;3.70;;
77117;SDS011;66072;50.238;19.228;2023-04-24T13:35:16;5.20;;;4.10;;
77117;SDS011;66072;50.238;19.228;2023-04-24T13:37:44;4.70;;;3.80;;
77117;SDS011;66072;50.238;19.228;2023-04-24T13:40:12;5.30;;;4.00;;
77117;SDS011;66072;50.238;19.228;2023-04-24T13:42:39;4.50;;;4.00;;
77117;SDS011;66072;50.238;19.228;2023-04-24T13:45:07;10.30;;;4.70;;
77117;SDS011;66072;50.238;19.228;2023-04-24T13:47:51;6.00;;;4.10;;
77117;SDS011;66072;50.238;19.228;2023-04-24T13:50:20;4.90;;;4.20;;
77117;SDS011;66072;50.238;19.228;2023-04-24T13:52:47;5.40;;;4.00;;
77117;SDS011;66072;50.238;19.228;2023-04-24T13:55:15;6.90;;;4.90;;
77117;SDS011;66072;50.238;19.228;2023-04-24T13:57:43;7.10;;;5.20;;
77117;SDS011;66072;50.238;19.228;2023-04-24T14:00:10;6.80;;;4.90;;
77117;SDS011;66072;50.238;19.228;2023-04-24T14:02:38;7.40;;;4.20;;
77117;SDS011;66072;50.238;19.228;2023-04-24T14:05:07;7.50;;;5.30;;
77117;SDS011;66072;50.238;19.228;2023-04-24T14:07:34;6.80;;;5.10;;
77117;SDS011;66072;50.238;19.228;2023-04-24T14:10:02;5.20;;;3.80;;
77117;SDS011;66072;50.238;19.228;2023-04-24T14:12:30;6.20;;;5.40;;
77117;SDS011;66072;50.238;19.228;2023-04-24T14:14:57;9.20;;;5.90;;
77117;SDS011;66072;50.238;19.228;2023-04-24T14:17:25;8.50;;;5.60;;
77117;SDS011;66072;50.238;19.228;2023-04-24T14:19:53;7.60;;;4.30;;
77117;SDS011;66072;50.238;19.228;2023-04-24T14:22:20;12.80;;;5.60;;
77117;SDS011;66072;50.238;19.228;2023-04-24T14:24:48;6.00;;;4.90;;
77117;SDS011;66072;50.238;19.228;2023-04-24T14:27:15;5.30;;;4.20;;
77117;SDS011;66072;50.238;19.228;2023-04-24T14:29:43;6.20;;;4.90;;
77117;SDS011;66072;50.238;19.228;2023-04-24T14:32:11;6.00;;;4.00;;
77117;SDS011;66072;50.238;19.228;2023-04-24T14:34:38;6.90;;;4.70;;
77117;SDS011;66072;50.238;19.228;2023-04-24T14:37:06;5.90;;;4.20;;
77117;SDS011;66072;50.238;19.228;2023-04-24T14:39:34;7.40;;;5.10;;
77117;SDS011;66072;50.238;19.228;2023-04-24T14:42:02;8.20;;;6.60;;
77117;SDS011;66072;50.238;19.228;2023-04-24T14:44:29;9.10;;;6.40;;